sensor_id;sensor_type;location;lat;lon;timestamp;temperature;humidity
484;DHT22;228;48.922;12.198;2023-03-05T00:00:51;3.50;68.20
484;DHT22;228;48.922;12.198;2023-03-05T00:03:17;3.50;67.20
484;DHT22;228;48.922;12.198;2023-03-05T00:05:43;3.50;67.30
484;DHT22;228;48.922;12.198;2023-03-05T00:08:09;3.90;66.50
484;DHT22;228;48.922;12.198;2023-03-05T00:10:35;3.80;66.40
484;DHT22;228;48.922;12.198;2023-03-05T00:13:01;4.00;66.00
484;DHT22;228;48.922;12.198;2023-03-05T00:15:27;3.60;65.80
484;DHT22;228;48.922;12.198;2023-03-05T00:17:53;3.80;66.60
484;DHT22;228;48.922;12.198;2023-03-05T00:20:19;3.40;66.90
484;DHT22;228;48.922;12.198;2023-03-05T00:22:45;3.60;66.70
484;DHT22;228;48.922;12.198;2023-03-05T00:25:11;3.80;66.20
484;DHT22;228;48.922;12.198;2023-03-05T00:27:38;3.60;65.80
484;DHT22;228;48.922;12.198;2023-03-05T00:30:04;3.30;66.70
484;DHT22;228;48.922;12.198;2023-03-05T00:32:31;3.30;67.40
484;DHT22;228;48.922;12.198;2023-03-05T00:34:57;3.60;66.70
484;DHT22;228;48.922;12.198;2023-03-05T00:37:23;3.90;65.70
484;DHT22;228;48.922;12.198;2023-03-05T00:39:49;4.00;64.70
484;DHT22;228;48.922;12.198;2023-03-05T00:42:15;3.40;65.70
484;DHT22;228;48.922;12.198;2023-03-05T00:44:41;3.60;66.80
484;DHT22;228;48.922;12.198;2023-03-05T00:47:07;3.30;67.10
484;DHT22;228;48.922;12.198;2023-03-05T00:49:33;3.30;67.10
484;DHT22;228;48.922;12.198;2023-03-05T00:51:59;3.30;67.50
484;DHT22;228;48.922;12.198;2023-03-05T00:54:25;3.20;68.10
484;DHT22;228;48.922;12.198;2023-03-05T00:56:51;3.30;67.80
484;DHT22;228;48.922;12.198;2023-03-05T00:59:17;3.20;67.80
484;DHT22;228;48.922;12.198;2023-03-05T01:01:43;3.30;68.10
484;DHT22;228;48.922;12.198;2023-03-05T01:04:09;3.50;67.60
484;DHT22;228;48.922;12.198;2023-03-05T01:06:35;3.40;67.40
484;DHT22;228;48.922;12.198;2023-03-05T01:09:02;3.50;68.20
484;DHT22;228;48.922;12.198;2023-03-05T01:11:28;3.30;67.50
484;DHT22;228;48.922;12.198;2023-03-05T01:13:54;3.80;67.30
484;DHT22;228;48.922;12.198;2023-03-05T01:16:20;3.70;66.80
484;DHT22;228;48.922;12.198;2023-03-05T01:18:47;3.30;67.50
484;DHT22;228;48.922;12.198;2023-03-05T01:21:13;3.30;68.20
484;DHT22;228;48.922;12.198;2023-03-05T01:23:39;3.40;67.80
484;DHT22;228;48.922;12.198;2023-03-05T01:26:05;3.00;68.40
484;DHT22;228;48.922;12.198;2023-03-05T01:28:33;3.00;69.00
484;DHT22;228;48.922;12.198;2023-03-05T01:30:59;3.10;69.30
484;DHT22;228;48.922;12.198;2023-03-05T01:33:25;3.10;68.40
484;DHT22;228;48.922;12.198;2023-03-05T01:35:51;3.10;69.20
484;DHT22;228;48.922;12.198;2023-03-05T01:38:17;2.90;68.10
484;DHT22;228;48.922;12.198;2023-03-05T01:40:43;3.00;68.00
484;DHT22;228;48.922;12.198;2023-03-05T01:45:36;3.40;68.30
484;DHT22;228;48.922;12.198;2023-03-05T01:48:04;3.70;67.40
484;DHT22;228;48.922;12.198;2023-03-05T01:50:30;3.40;66.30
484;DHT22;228;48.922;12.198;2023-03-05T01:53:00;3.40;68.20
484;DHT22;228;48.922;12.198;2023-03-05T01:55:28;3.40;68.30
484;DHT22;228;48.922;12.198;2023-03-05T01:58:03;3.70;67.80
484;DHT22;228;48.922;12.198;2023-03-05T02:00:36;3.60;67.00
484;DHT22;228;48.922;12.198;2023-03-05T02:03:08;3.30;68.10
484;DHT22;228;48.922;12.198;2023-03-05T02:05:37;3.60;67.70
484;DHT22;228;48.922;12.198;2023-03-05T02:08:08;3.30;67.80
484;DHT22;228;48.922;12.198;2023-03-05T02:10:42;3.20;68.80
484;DHT22;228;48.922;12.198;2023-03-05T02:13:19;3.50;68.70
484;DHT22;228;48.922;12.198;2023-03-05T02:15:52;3.60;68.40
484;DHT22;228;48.922;12.198;2023-03-05T02:18:19;3.70;68.00
484;DHT22;228;48.922;12.198;2023-03-05T02:20:50;3.50;66.80
484;DHT22;228;48.922;12.198;2023-03-05T02:23:18;3.60;68.70
484;DHT22;228;48.922;12.198;2023-03-05T02:25:46;3.70;68.10
484;DHT22;228;48.922;12.198;2023-03-05T02:30:58;3.70;68.20
484;DHT22;228;48.922;12.198;2023-03-05T02:33:25;3.90;67.70
484;DHT22;228;48.922;12.198;2023-03-05T02:35:51;4.00;67.70
484;DHT22;228;48.922;12.198;2023-03-05T02:38:19;3.90;68.10
484;DHT22;228;48.922;12.198;2023-03-05T02:40:46;3.80;68.10
484;DHT22;228;48.922;12.198;2023-03-05T02:43:14;3.70;68.20
484;DHT22;228;48.922;12.198;2023-03-05T02:45:40;3.80;67.90
484;DHT22;228;48.922;12.198;2023-03-05T02:48:06;3.90;67.80
484;DHT22;228;48.922;12.198;2023-03-05T02:50:33;3.80;67.60
484;DHT22;228;48.922;12.198;2023-03-05T02:52:59;3.40;69.00
484;DHT22;228;48.922;12.198;2023-03-05T02:55:25;3.60;69.10
484;DHT22;228;48.922;12.198;2023-03-05T02:57:52;3.40;69.60
484;DHT22;228;48.922;12.198;2023-03-05T03:00:18;3.60;69.20
484;DHT22;228;48.922;12.198;2023-03-05T03:02:44;3.70;69.10
484;DHT22;228;48.922;12.198;2023-03-05T03:05:10;3.70;68.50
484;DHT22;228;48.922;12.198;2023-03-05T03:07:36;3.50;69.00
484;DHT22;228;48.922;12.198;2023-03-05T03:10:03;3.40;69.80
484;DHT22;228;48.922;12.198;2023-03-05T03:12:30;3.50;70.00
484;DHT22;228;48.922;12.198;2023-03-05T03:14:56;3.60;69.80
484;DHT22;228;48.922;12.198;2023-03-05T03:17:22;3.80;69.10
484;DHT22;228;48.922;12.198;2023-03-05T03:19:48;3.90;67.80
484;DHT22;228;48.922;12.198;2023-03-05T03:22:14;4.20;67.80
484;DHT22;228;48.922;12.198;2023-03-05T03:24:42;3.90;68.00
484;DHT22;228;48.922;12.198;2023-03-05T03:27:09;3.70;69.00
484;DHT22;228;48.922;12.198;2023-03-05T03:29:36;3.60;69.80
484;DHT22;228;48.922;12.198;2023-03-05T03:32:02;3.50;70.20
484;DHT22;228;48.922;12.198;2023-03-05T03:34:29;3.50;70.40
484;DHT22;228;48.922;12.198;2023-03-05T03:36:55;3.50;70.10
484;DHT22;228;48.922;12.198;2023-03-05T03:39:21;3.40;70.10
484;DHT22;228;48.922;12.198;2023-03-05T03:41:49;3.70;70.10
484;DHT22;228;48.922;12.198;2023-03-05T03:44:17;3.70;70.20
484;DHT22;228;48.922;12.198;2023-03-05T03:46:45;3.50;70.40
484;DHT22;228;48.922;12.198;2023-03-05T03:49:21;3.50;70.90
484;DHT22;228;48.922;12.198;2023-03-05T03:51:50;3.50;70.90
484;DHT22;228;48.922;12.198;2023-03-05T03:54:19;3.50;71.70
484;DHT22;228;48.922;12.198;2023-03-05T03:56:45;3.30;71.90
484;DHT22;228;48.922;12.198;2023-03-05T03:59:12;3.40;72.40
484;DHT22;228;48.922;12.198;2023-03-05T04:01:38;3.30;72.50
484;DHT22;228;48.922;12.198;2023-03-05T04:04:05;3.30;72.00
484;DHT22;228;48.922;12.198;2023-03-05T04:06:32;3.30;72.60
484;DHT22;228;48.922;12.198;2023-03-05T04:08:58;3.20;73.30
484;DHT22;228;48.922;12.198;2023-03-05T04:11:25;3.50;72.00
484;DHT22;228;48.922;12.198;2023-03-05T04:13:51;3.70;70.50
484;DHT22;228;48.922;12.198;2023-03-05T04:16:19;3.70;69.50
484;DHT22;228;48.922;12.198;2023-03-05T04:18:45;3.60;70.50
484;DHT22;228;48.922;12.198;2023-03-05T04:21:12;3.70;70.40
484;DHT22;228;48.922;12.198;2023-03-05T04:23:38;3.40;70.20
484;DHT22;228;48.922;12.198;2023-03-05T04:26:05;3.20;72.50
484;DHT22;228;48.922;12.198;2023-03-05T04:28:32;3.60;71.90
484;DHT22;228;48.922;12.198;2023-03-05T04:30:58;3.40;71.60
484;DHT22;228;48.922;12.198;2023-03-05T04:33:24;3.60;70.50
484;DHT22;228;48.922;12.198;2023-03-05T04:35:51;3.30;70.90
484;DHT22;228;48.922;12.198;2023-03-05T04:38:17;3.10;71.70
484;DHT22;228;48.922;12.198;2023-03-05T04:40:44;3.30;71.80
484;DHT22;228;48.922;12.198;2023-03-05T04:43:11;3.50;71.80
484;DHT22;228;48.922;12.198;2023-03-05T04:45:41;3.40;71.20
484;DHT22;228;48.922;12.198;2023-03-05T04:48:08;3.30;72.80
484;DHT22;228;48.922;12.198;2023-03-05T04:50:35;3.50;72.80
484;DHT22;228;48.922;12.198;2023-03-05T04:53:02;3.20;72.80
484;DHT22;228;48.922;12.198;2023-03-05T04:55:29;3.10;73.20
484;DHT22;228;48.922;12.198;2023-03-05T04:57:55;3.30;72.60
484;DHT22;228;48.922;12.198;2023-03-05T05:00:21;3.30;73.20
484;DHT22;228;48.922;12.198;2023-03-05T05:02:50;3.40;72.80
484;DHT22;228;48.922;12.198;2023-03-05T05:05:19;3.30;73.70
484;DHT22;228;48.922;12.198;2023-03-05T05:07:47;3.40;73.10
484;DHT22;228;48.922;12.198;2023-03-05T05:10:14;3.60;71.50
484;DHT22;228;48.922;12.198;2023-03-05T05:12:41;3.60;72.40
484;DHT22;228;48.922;12.198;2023-03-05T05:15:08;3.90;71.10
484;DHT22;228;48.922;12.198;2023-03-05T05:17:35;3.80;71.20
484;DHT22;228;48.922;12.198;2023-03-05T05:20:01;3.70;71.20
484;DHT22;228;48.922;12.198;2023-03-05T05:22:33;3.70;71.70
484;DHT22;228;48.922;12.198;2023-03-05T05:24:59;3.70;72.10
484;DHT22;228;48.922;12.198;2023-03-05T05:27:25;3.60;72.10
484;DHT22;228;48.922;12.198;2023-03-05T05:29:51;3.80;69.90
484;DHT22;228;48.922;12.198;2023-03-05T05:32:19;3.70;69.60
484;DHT22;228;48.922;12.198;2023-03-05T05:34:47;3.60;72.20
484;DHT22;228;48.922;12.198;2023-03-05T05:37:13;3.70;71.60
484;DHT22;228;48.922;12.198;2023-03-05T05:39:39;3.90;71.20
484;DHT22;228;48.922;12.198;2023-03-05T05:42:05;3.90;71.20
484;DHT22;228;48.922;12.198;2023-03-05T05:44:32;4.10;70.70
484;DHT22;228;48.922;12.198;2023-03-05T05:46:59;3.70;71.20
484;DHT22;228;48.922;12.198;2023-03-05T05:49:25;3.60;72.10
484;DHT22;228;48.922;12.198;2023-03-05T05:51:51;3.40;72.20
484;DHT22;228;48.922;12.198;2023-03-05T05:54:17;3.50;72.40
484;DHT22;228;48.922;12.198;2023-03-05T05:56:43;3.80;71.70
484;DHT22;228;48.922;12.198;2023-03-05T05:59:09;3.80;71.20
484;DHT22;228;48.922;12.198;2023-03-05T06:01:35;4.00;71.30
484;DHT22;228;48.922;12.198;2023-03-05T06:04:01;4.10;71.00
484;DHT22;228;48.922;12.198;2023-03-05T06:06:28;4.10;70.30
484;DHT22;228;48.922;12.198;2023-03-05T06:08:54;4.20;70.30
484;DHT22;228;48.922;12.198;2023-03-05T06:11:21;4.20;70.10
484;DHT22;228;48.922;12.198;2023-03-05T06:13:48;4.50;69.00
484;DHT22;228;48.922;12.198;2023-03-05T06:16:21;4.30;68.80
484;DHT22;228;48.922;12.198;2023-03-05T06:18:50;4.10;69.80
484;DHT22;228;48.922;12.198;2023-03-05T06:21:17;3.90;71.40
484;DHT22;228;48.922;12.198;2023-03-05T06:23:45;4.20;71.30
484;DHT22;228;48.922;12.198;2023-03-05T06:26:14;4.20;70.20
484;DHT22;228;48.922;12.198;2023-03-05T06:28:41;4.40;69.50
484;DHT22;228;48.922;12.198;2023-03-05T06:31:11;4.20;69.70
484;DHT22;228;48.922;12.198;2023-03-05T06:33:40;4.20;70.30
484;DHT22;228;48.922;12.198;2023-03-05T06:36:09;4.30;69.50
484;DHT22;228;48.922;12.198;2023-03-05T06:38:37;4.50;69.50
484;DHT22;228;48.922;12.198;2023-03-05T06:43:35;4.70;68.70
484;DHT22;228;48.922;12.198;2023-03-05T06:48:33;4.70;67.80
484;DHT22;228;48.922;12.198;2023-03-05T06:51:00;4.80;67.90
484;DHT22;228;48.922;12.198;2023-03-05T06:53:26;4.80;67.70
484;DHT22;228;48.922;12.198;2023-03-05T06:55:52;5.10;67.40
484;DHT22;228;48.922;12.198;2023-03-05T06:58:19;4.70;67.20
484;DHT22;228;48.922;12.198;2023-03-05T07:00:46;4.70;68.20
484;DHT22;228;48.922;12.198;2023-03-05T07:03:12;4.60;68.10
484;DHT22;228;48.922;12.198;2023-03-05T07:05:39;4.60;68.40
484;DHT22;228;48.922;12.198;2023-03-05T07:08:06;4.30;69.00
484;DHT22;228;48.922;12.198;2023-03-05T07:10:39;4.30;69.60
484;DHT22;228;48.922;12.198;2023-03-05T07:13:07;4.60;69.20
484;DHT22;228;48.922;12.198;2023-03-05T07:15:37;4.60;69.20
484;DHT22;228;48.922;12.198;2023-03-05T07:18:03;4.50;68.40
484;DHT22;228;48.922;12.198;2023-03-05T07:20:29;4.40;68.60
484;DHT22;228;48.922;12.198;2023-03-05T07:22:55;4.20;69.10
484;DHT22;228;48.922;12.198;2023-03-05T07:25:21;4.30;69.80
484;DHT22;228;48.922;12.198;2023-03-05T07:27:49;4.00;70.10
484;DHT22;228;48.922;12.198;2023-03-05T07:30:15;4.20;70.40
484;DHT22;228;48.922;12.198;2023-03-05T07:32:41;4.30;69.80
484;DHT22;228;48.922;12.198;2023-03-05T07:35:08;4.40;69.60
484;DHT22;228;48.922;12.198;2023-03-05T07:37:34;4.60;69.50
484;DHT22;228;48.922;12.198;2023-03-05T07:40:00;4.80;68.40
484;DHT22;228;48.922;12.198;2023-03-05T07:42:26;4.90;68.10
484;DHT22;228;48.922;12.198;2023-03-05T07:45:07;5.20;67.20
484;DHT22;228;48.922;12.198;2023-03-05T07:47:33;5.10;66.60
484;DHT22;228;48.922;12.198;2023-03-05T07:49:59;5.30;66.40
484;DHT22;228;48.922;12.198;2023-03-05T07:52:25;5.20;65.90
484;DHT22;228;48.922;12.198;2023-03-05T07:54:51;5.10;66.50
484;DHT22;228;48.922;12.198;2023-03-05T07:57:17;5.00;67.20
484;DHT22;228;48.922;12.198;2023-03-05T07:59:43;5.30;66.60
484;DHT22;228;48.922;12.198;2023-03-05T08:02:11;5.70;65.50
484;DHT22;228;48.922;12.198;2023-03-05T08:04:38;5.90;64.40
484;DHT22;228;48.922;12.198;2023-03-05T08:07:05;5.90;64.00
484;DHT22;228;48.922;12.198;2023-03-05T08:09:31;5.70;63.90
484;DHT22;228;48.922;12.198;2023-03-05T08:11:58;6.00;64.30
484;DHT22;228;48.922;12.198;2023-03-05T08:14:24;6.40;62.50
484;DHT22;228;48.922;12.198;2023-03-05T08:16:50;6.10;63.40
484;DHT22;228;48.922;12.198;2023-03-05T08:19:20;6.30;63.20
484;DHT22;228;48.922;12.198;2023-03-05T08:21:46;6.30;62.70
484;DHT22;228;48.922;12.198;2023-03-05T08:24:12;6.40;62.30
484;DHT22;228;48.922;12.198;2023-03-05T08:26:39;6.20;62.70
484;DHT22;228;48.922;12.198;2023-03-05T08:29:06;5.60;63.40
484;DHT22;228;48.922;12.198;2023-03-05T08:31:34;5.40;64.60
484;DHT22;228;48.922;12.198;2023-03-05T08:34:01;5.60;65.20
484;DHT22;228;48.922;12.198;2023-03-05T08:36:28;5.50;65.00
484;DHT22;228;48.922;12.198;2023-03-05T08:38:54;5.60;64.40
484;DHT22;228;48.922;12.198;2023-03-05T08:41:21;5.90;64.30
484;DHT22;228;48.922;12.198;2023-03-05T08:43:47;6.50;63.00
484;DHT22;228;48.922;12.198;2023-03-05T08:46:14;6.60;61.70
484;DHT22;228;48.922;12.198;2023-03-05T08:48:41;6.40;61.70
484;DHT22;228;48.922;12.198;2023-03-05T08:51:10;6.50;61.90
484;DHT22;228;48.922;12.198;2023-03-05T08:53:38;6.10;62.20
484;DHT22;228;48.922;12.198;2023-03-05T08:56:05;5.90;62.90
484;DHT22;228;48.922;12.198;2023-03-05T08:58:31;5.90;63.20
484;DHT22;228;48.922;12.198;2023-03-05T09:00:58;6.10;63.10
484;DHT22;228;48.922;12.198;2023-03-05T09:03:24;6.20;62.90
484;DHT22;228;48.922;12.198;2023-03-05T09:05:50;5.90;63.10
484;DHT22;228;48.922;12.198;2023-03-05T09:08:17;5.80;63.30
484;DHT22;228;48.922;12.198;2023-03-05T09:10:44;6.10;63.70
484;DHT22;228;48.922;12.198;2023-03-05T09:13:10;6.40;62.30
484;DHT22;228;48.922;12.198;2023-03-05T09:15:37;6.50;61.70
484;DHT22;228;48.922;12.198;2023-03-05T09:18:04;6.50;60.60
484;DHT22;228;48.922;12.198;2023-03-05T09:20:30;5.90;62.70
484;DHT22;228;48.922;12.198;2023-03-05T09:22:56;5.70;64.30
484;DHT22;228;48.922;12.198;2023-03-05T09:25:22;5.80;64.00
484;DHT22;228;48.922;12.198;2023-03-05T09:27:48;6.00;63.50
484;DHT22;228;48.922;12.198;2023-03-05T09:30:14;6.10;63.30
484;DHT22;228;48.922;12.198;2023-03-05T09:32:41;6.00;62.90
484;DHT22;228;48.922;12.198;2023-03-05T09:35:08;5.70;64.00
484;DHT22;228;48.922;12.198;2023-03-05T09:37:34;6.00;64.60
484;DHT22;228;48.922;12.198;2023-03-05T09:40:02;5.70;63.90
484;DHT22;228;48.922;12.198;2023-03-05T09:48:16;6.60;61.80
484;DHT22;228;48.922;12.198;2023-03-05T09:50:52;7.10;61.00
484;DHT22;228;48.922;12.198;2023-03-05T09:58:55;6.60;61.90
484;DHT22;228;48.922;12.198;2023-03-05T10:01:35;6.60;61.50
484;DHT22;228;48.922;12.198;2023-03-05T10:04:20;7.10;61.60
484;DHT22;228;48.922;12.198;2023-03-05T10:18:17;7.10;59.80
484;DHT22;228;48.922;12.198;2023-03-05T10:21:17;7.20;59.80
484;DHT22;228;48.922;12.198;2023-03-05T10:27:30;7.50;59.00
484;DHT22;228;48.922;12.198;2023-03-05T10:39:20;8.00;58.50
484;DHT22;228;48.922;12.198;2023-03-05T10:48:02;8.10;58.70
484;DHT22;228;48.922;12.198;2023-03-05T10:50:39;7.90;58.20
484;DHT22;228;48.922;12.198;2023-03-05T10:53:24;7.60;58.60
484;DHT22;228;48.922;12.198;2023-03-05T10:55:53;7.40;58.90
484;DHT22;228;48.922;12.198;2023-03-05T10:58:22;7.20;59.60
484;DHT22;228;48.922;12.198;2023-03-05T11:01:21;7.20;59.60
484;DHT22;228;48.922;12.198;2023-03-05T11:09:27;7.10;60.70
484;DHT22;228;48.922;12.198;2023-03-05T11:12:20;7.10;59.60
484;DHT22;228;48.922;12.198;2023-03-05T11:17:47;7.60;58.60
484;DHT22;228;48.922;12.198;2023-03-05T11:20:35;7.10;59.40
484;DHT22;228;48.922;12.198;2023-03-05T11:23:14;7.40;59.60
484;DHT22;228;48.922;12.198;2023-03-05T11:29:02;7.20;59.70
484;DHT22;228;48.922;12.198;2023-03-05T11:31:25;7.00;60.20
484;DHT22;228;48.922;12.198;2023-03-05T11:34:10;7.20;59.60
484;DHT22;228;48.922;12.198;2023-03-05T11:39:22;7.50;58.90
484;DHT22;228;48.922;12.198;2023-03-05T11:41:50;7.40;59.30
484;DHT22;228;48.922;12.198;2023-03-05T11:44:31;7.10;58.80
484;DHT22;228;48.922;12.198;2023-03-05T11:52:51;6.70;58.90
484;DHT22;228;48.922;12.198;2023-03-05T11:55:45;6.90;59.60
484;DHT22;228;48.922;12.198;2023-03-05T12:00:49;7.30;58.80
484;DHT22;228;48.922;12.198;2023-03-05T12:03:22;7.20;59.30
484;DHT22;228;48.922;12.198;2023-03-05T12:05:55;7.40;59.40
484;DHT22;228;48.922;12.198;2023-03-05T12:08:28;7.10;59.10
484;DHT22;228;48.922;12.198;2023-03-05T12:11:03;7.40;59.10
484;DHT22;228;48.922;12.198;2023-03-05T12:13:41;7.20;59.70
484;DHT22;228;48.922;12.198;2023-03-05T12:19:31;7.60;58.30
484;DHT22;228;48.922;12.198;2023-03-05T12:22:00;7.10;58.80
484;DHT22;228;48.922;12.198;2023-03-05T12:32:05;7.70;58.10
484;DHT22;228;48.922;12.198;2023-03-05T12:34:49;7.60;57.90
484;DHT22;228;48.922;12.198;2023-03-05T12:47:41;5.60;59.70
484;DHT22;228;48.922;12.198;2023-03-05T12:53:09;5.10;62.00
484;DHT22;228;48.922;12.198;2023-03-05T12:58:33;5.20;61.90
484;DHT22;228;48.922;12.198;2023-03-05T13:03:46;4.90;61.80
484;DHT22;228;48.922;12.198;2023-03-05T13:06:32;5.20;62.90
484;DHT22;228;48.922;12.198;2023-03-05T13:09:01;5.20;61.90
484;DHT22;228;48.922;12.198;2023-03-05T13:11:30;5.30;62.00
484;DHT22;228;48.922;12.198;2023-03-05T13:13:59;4.90;61.80
484;DHT22;228;48.922;12.198;2023-03-05T13:16:44;4.70;63.40
484;DHT22;228;48.922;12.198;2023-03-05T13:19:15;4.90;63.40
484;DHT22;228;48.922;12.198;2023-03-05T13:21:42;4.90;63.40
484;DHT22;228;48.922;12.198;2023-03-05T13:24:16;5.00;63.90
484;DHT22;228;48.922;12.198;2023-03-05T13:26:44;5.00;63.90
484;DHT22;228;48.922;12.198;2023-03-05T13:29:24;4.70;64.00
484;DHT22;228;48.922;12.198;2023-03-05T13:31:59;4.80;64.50
484;DHT22;228;48.922;12.198;2023-03-05T13:34:34;4.80;64.10
484;DHT22;228;48.922;12.198;2023-03-05T13:37:15;4.90;63.70
484;DHT22;228;48.922;12.198;2023-03-05T13:39:54;4.60;63.90
484;DHT22;228;48.922;12.198;2023-03-05T13:44:58;4.50;65.40
484;DHT22;228;48.922;12.198;2023-03-05T13:47:27;4.60;65.00
484;DHT22;228;48.922;12.198;2023-03-05T13:50:00;4.80;65.30
484;DHT22;228;48.922;12.198;2023-03-05T13:52:37;5.10;64.60
484;DHT22;228;48.922;12.198;2023-03-05T13:55:14;5.20;61.90
484;DHT22;228;48.922;12.198;2023-03-05T13:57:43;5.20;60.90
484;DHT22;228;48.922;12.198;2023-03-05T14:00:35;5.10;59.20
484;DHT22;228;48.922;12.198;2023-03-05T14:03:22;5.10;57.00
484;DHT22;228;48.922;12.198;2023-03-05T14:05:51;4.80;57.30
484;DHT22;228;48.922;12.198;2023-03-05T14:08:21;5.00;58.10
484;DHT22;228;48.922;12.198;2023-03-05T14:10:51;5.00;57.20
484;DHT22;228;48.922;12.198;2023-03-05T14:13:21;5.20;57.30
484;DHT22;228;48.922;12.198;2023-03-05T14:16:25;5.40;57.70
484;DHT22;228;48.922;12.198;2023-03-05T14:18:58;5.70;57.10
484;DHT22;228;48.922;12.198;2023-03-05T14:21:46;5.50;56.70
484;DHT22;228;48.922;12.198;2023-03-05T14:24:20;5.30;57.20
484;DHT22;228;48.922;12.198;2023-03-05T14:26:50;4.70;58.30
484;DHT22;228;48.922;12.198;2023-03-05T14:29:20;4.90;58.40
484;DHT22;228;48.922;12.198;2023-03-05T14:34:25;5.10;57.50
484;DHT22;228;48.922;12.198;2023-03-05T14:36:58;4.90;57.30
484;DHT22;228;48.922;12.198;2023-03-05T14:39:37;4.90;58.30
484;DHT22;228;48.922;12.198;2023-03-05T14:44:56;5.30;57.40
484;DHT22;228;48.922;12.198;2023-03-05T14:47:24;5.50;57.40
484;DHT22;228;48.922;12.198;2023-03-05T14:49:51;5.10;56.90
484;DHT22;228;48.922;12.198;2023-03-05T14:52:21;5.00;58.20
484;DHT22;228;48.922;12.198;2023-03-05T14:54:48;5.20;58.40
484;DHT22;228;48.922;12.198;2023-03-05T14:57:19;5.60;57.40
484;DHT22;228;48.922;12.198;2023-03-05T14:59:47;5.80;56.70
484;DHT22;228;48.922;12.198;2023-03-05T15:02:15;6.00;55.90
484;DHT22;228;48.922;12.198;2023-03-05T15:04:42;5.50;56.60
484;DHT22;228;48.922;12.198;2023-03-05T15:07:16;5.80;56.70
484;DHT22;228;48.922;12.198;2023-03-05T15:09:52;5.90;56.30
484;DHT22;228;48.922;12.198;2023-03-05T15:12:19;5.90;55.00
484;DHT22;228;48.922;12.198;2023-03-05T15:14:55;5.60;55.70
484;DHT22;228;48.922;12.198;2023-03-05T15:17:37;5.50;56.20
484;DHT22;228;48.922;12.198;2023-03-05T15:20:09;5.20;57.10
484;DHT22;228;48.922;12.198;2023-03-05T15:22:37;5.10;57.40
484;DHT22;228;48.922;12.198;2023-03-05T15:25:03;5.30;57.50
484;DHT22;228;48.922;12.198;2023-03-05T15:27:30;5.30;57.10
484;DHT22;228;48.922;12.198;2023-03-05T15:29:56;5.40;56.80
484;DHT22;228;48.922;12.198;2023-03-05T15:32:27;5.30;56.50
484;DHT22;228;48.922;12.198;2023-03-05T15:34:55;5.20;57.00
484;DHT22;228;48.922;12.198;2023-03-05T15:37:22;5.50;56.00
484;DHT22;228;48.922;12.198;2023-03-05T15:39:48;5.70;55.80
484;DHT22;228;48.922;12.198;2023-03-05T15:42:14;6.00;55.80
484;DHT22;228;48.922;12.198;2023-03-05T15:44:40;6.00;55.00
484;DHT22;228;48.922;12.198;2023-03-05T15:47:07;6.00;55.30
484;DHT22;228;48.922;12.198;2023-03-05T15:49:33;6.10;55.00
484;DHT22;228;48.922;12.198;2023-03-05T15:51:58;6.30;54.20
484;DHT22;228;48.922;12.198;2023-03-05T15:54:25;6.30;54.00
484;DHT22;228;48.922;12.198;2023-03-05T15:56:52;6.20;53.80
484;DHT22;228;48.922;12.198;2023-03-05T15:59:19;6.40;54.00
484;DHT22;228;48.922;12.198;2023-03-05T16:01:50;6.50;54.90
484;DHT22;228;48.922;12.198;2023-03-05T16:04:16;6.60;53.70
484;DHT22;228;48.922;12.198;2023-03-05T16:06:45;6.80;53.20
484;DHT22;228;48.922;12.198;2023-03-05T16:09:12;7.10;52.90
484;DHT22;228;48.922;12.198;2023-03-05T16:11:40;7.00;52.00
484;DHT22;228;48.922;12.198;2023-03-05T16:14:11;7.00;52.10
484;DHT22;228;48.922;12.198;2023-03-05T16:16:37;7.10;51.90
484;DHT22;228;48.922;12.198;2023-03-05T16:19:05;7.20;51.40
484;DHT22;228;48.922;12.198;2023-03-05T16:21:34;7.30;51.40
484;DHT22;228;48.922;12.198;2023-03-05T16:24:00;7.40;51.10
484;DHT22;228;48.922;12.198;2023-03-05T16:26:26;7.20;51.40
484;DHT22;228;48.922;12.198;2023-03-05T16:28:52;7.30;51.40
484;DHT22;228;48.922;12.198;2023-03-05T16:31:19;7.30;51.70
484;DHT22;228;48.922;12.198;2023-03-05T16:33:45;7.20;51.40
484;DHT22;228;48.922;12.198;2023-03-05T16:36:25;7.00;51.90
484;DHT22;228;48.922;12.198;2023-03-05T16:38:55;6.90;51.90
484;DHT22;228;48.922;12.198;2023-03-05T16:41:22;6.90;51.90
484;DHT22;228;48.922;12.198;2023-03-05T16:43:50;6.80;52.00
484;DHT22;228;48.922;12.198;2023-03-05T16:46:19;6.90;52.30
484;DHT22;228;48.922;12.198;2023-03-05T16:48:45;7.00;52.30
484;DHT22;228;48.922;12.198;2023-03-05T16:51:11;6.80;51.60
484;DHT22;228;48.922;12.198;2023-03-05T16:53:38;6.70;52.20
484;DHT22;228;48.922;12.198;2023-03-05T16:56:06;6.80;52.50
484;DHT22;228;48.922;12.198;2023-03-05T16:58:34;6.80;52.50
484;DHT22;228;48.922;12.198;2023-03-05T17:01:01;6.70;52.70
484;DHT22;228;48.922;12.198;2023-03-05T17:03:27;6.80;52.50
484;DHT22;228;48.922;12.198;2023-03-05T17:05:54;6.90;52.10
484;DHT22;228;48.922;12.198;2023-03-05T17:08:20;6.90;51.70
484;DHT22;228;48.922;12.198;2023-03-05T17:10:48;6.90;51.80
484;DHT22;228;48.922;12.198;2023-03-05T17:13:14;6.80;52.00
484;DHT22;228;48.922;12.198;2023-03-05T17:15:40;7.00;51.90
484;DHT22;228;48.922;12.198;2023-03-05T17:18:07;7.10;51.40
484;DHT22;228;48.922;12.198;2023-03-05T17:20:33;7.30;51.10
484;DHT22;228;48.922;12.198;2023-03-05T17:23:01;7.40;50.70
484;DHT22;228;48.922;12.198;2023-03-05T17:25:27;6.90;51.30
484;DHT22;228;48.922;12.198;2023-03-05T17:27:54;6.70;52.40
484;DHT22;228;48.922;12.198;2023-03-05T17:30:20;6.80;53.30
484;DHT22;228;48.922;12.198;2023-03-05T17:32:46;7.00;52.50
484;DHT22;228;48.922;12.198;2023-03-05T17:35:17;7.20;52.70
484;DHT22;228;48.922;12.198;2023-03-05T17:37:44;7.00;53.20
484;DHT22;228;48.922;12.198;2023-03-05T17:40:12;6.70;53.80
484;DHT22;228;48.922;12.198;2023-03-05T17:42:38;6.40;55.00
484;DHT22;228;48.922;12.198;2023-03-05T17:45:05;6.30;55.30
484;DHT22;228;48.922;12.198;2023-03-05T17:47:32;6.20;55.80
484;DHT22;228;48.922;12.198;2023-03-05T17:50:01;5.80;56.50
484;DHT22;228;48.922;12.198;2023-03-05T17:52:27;5.60;57.20
484;DHT22;228;48.922;12.198;2023-03-05T17:54:54;5.60;57.00
484;DHT22;228;48.922;12.198;2023-03-05T17:57:20;5.90;56.80
484;DHT22;228;48.922;12.198;2023-03-05T17:59:47;6.00;56.40
484;DHT22;228;48.922;12.198;2023-03-05T18:02:13;6.10;56.20
484;DHT22;228;48.922;12.198;2023-03-05T18:04:39;6.20;56.00
484;DHT22;228;48.922;12.198;2023-03-05T18:07:06;6.10;56.50
484;DHT22;228;48.922;12.198;2023-03-05T18:09:32;6.20;55.80
484;DHT22;228;48.922;12.198;2023-03-05T18:11:58;6.20;56.30
484;DHT22;228;48.922;12.198;2023-03-05T18:14:24;6.20;55.30
484;DHT22;228;48.922;12.198;2023-03-05T18:16:50;6.20;55.20
484;DHT22;228;48.922;12.198;2023-03-05T18:19:16;6.20;55.50
484;DHT22;228;48.922;12.198;2023-03-05T18:21:43;6.30;55.70
484;DHT22;228;48.922;12.198;2023-03-05T18:24:09;6.50;55.30
484;DHT22;228;48.922;12.198;2023-03-05T18:26:35;6.50;54.70
484;DHT22;228;48.922;12.198;2023-03-05T18:29:01;6.50;54.20
484;DHT22;228;48.922;12.198;2023-03-05T18:31:28;6.40;54.40
484;DHT22;228;48.922;12.198;2023-03-05T18:33:54;6.50;54.80
484;DHT22;228;48.922;12.198;2023-03-05T18:36:20;6.30;54.60